createdAt,value
2019-04-30T00:01:26.652Z,98975.30
2019-04-30T00:03:59.373Z,98974.86
2019-04-30T00:06:34.541Z,98970.83
2019-04-30T00:09:02.163Z,98970.13
2019-04-30T00:11:31.694Z,98967.94
2019-04-30T00:14:01.403Z,98970.23
2019-04-30T00:16:35.564Z,98972.84
2019-04-30T00:19:02.212Z,98973.91
2019-04-30T00:21:31.675Z,98971.31
2019-04-30T00:24:06.327Z,98975.22
2019-04-30T00:26:32.641Z,98975.34
2019-04-30T00:29:02.250Z,98981.78
2019-04-30T00:31:31.991Z,98976.36
2019-04-30T00:34:01.534Z,98980.34
2019-04-30T00:36:34.134Z,98978.76
2019-04-30T00:39:02.209Z,98979.86
2019-04-30T00:41:32.037Z,98975.97
2019-04-30T00:44:24.813Z,98977.31
2019-04-30T00:46:52.075Z,98973.11
2019-04-30T00:49:23.177Z,98972.35
2019-04-30T00:51:54.730Z,98971.45
2019-04-30T00:54:28.008Z,98969.66
2019-04-30T00:56:57.498Z,98965.77
2019-04-30T00:59:26.405Z,98964.66
2019-04-30T01:01:57.528Z,98964.23
2019-04-30T01:04:28.781Z,98957.70
2019-04-30T01:07:00.269Z,98953.77
2019-04-30T01:09:30.058Z,98952.72
2019-04-30T01:11:59.571Z,98959.67
2019-04-30T01:14:31.985Z,98959.80
2019-04-30T01:17:03.837Z,98955.52
2019-04-30T01:19:32.904Z,98954.58
2019-04-30T01:22:03.022Z,98951.50
2019-04-30T01:24:38.781Z,98953.19
2019-04-30T01:27:10.674Z,98952.33
2019-04-30T01:29:44.084Z,98940.97
2019-04-30T01:32:17.459Z,98940.65
2019-04-30T01:34:44.215Z,98937.91
2019-04-30T01:37:14.387Z,98935.69
2019-04-30T01:39:43.901Z,98943.38
2019-04-30T01:42:13.393Z,98941.77
2019-04-30T01:44:43.563Z,98939.15
2019-04-30T01:47:14.119Z,98937.23
2019-04-30T01:49:44.867Z,98937.92
2019-04-30T01:52:14.566Z,98944.75
2019-04-30T01:54:44.091Z,98941.93
2019-04-30T01:57:35.999Z,98943.30
2019-04-30T02:00:09.746Z,98944.23
2019-04-30T02:02:59.295Z,98945.19
2019-04-30T02:05:28.978Z,98943.97
2019-04-30T02:07:58.634Z,98942.19
2019-04-30T02:10:49.187Z,98944.88
2019-04-30T02:13:18.914Z,98943.63
2019-04-30T02:15:49.251Z,98942.97
2019-04-30T02:18:19.514Z,98942.87
2019-04-30T02:20:49.783Z,98949.41
2019-04-30T02:23:19.745Z,98952.50
2019-04-30T02:25:49.393Z,98947.58
2019-04-30T02:28:19.161Z,98946.92
2019-04-30T02:30:50.408Z,98949.05
2019-04-30T02:33:20.505Z,98950.78
2019-04-30T02:38:39.578Z,98939.72
2019-04-30T02:41:10.236Z,98943.68
2019-04-30T02:43:42.126Z,98947.49
2019-04-30T02:46:15.632Z,98940.34
2019-04-30T02:48:47.240Z,98941.87
2019-04-30T02:51:22.550Z,98940.78
2019-04-30T02:53:55.791Z,98937.85
2019-04-30T02:56:27.102Z,98938.25
2019-04-30T02:59:00.441Z,98931.70
2019-04-30T03:01:50.128Z,98936.00
2019-04-30T03:04:19.772Z,98936.50
2019-04-30T03:06:50.229Z,98937.27
2019-04-30T03:09:20.482Z,98937.98
2019-04-30T03:11:50.374Z,98934.56
2019-04-30T03:14:20.364Z,98937.39
2019-04-30T03:16:53.284Z,98937.92
2019-04-30T03:22:10.180Z,98939.59
2019-04-30T03:24:42.924Z,98934.22
2019-04-30T03:27:11.095Z,98925.86
2019-04-30T03:29:40.842Z,98933.37
2019-04-30T03:32:23.281Z,98930.48
2019-04-30T03:34:52.829Z,98933.30
2019-04-30T03:37:22.299Z,98932.79
2019-04-30T03:39:51.778Z,98930.06
2019-04-30T03:42:21.292Z,98932.88
2019-04-30T03:44:50.759Z,98929.17
2019-04-30T03:47:20.494Z,98923.38
2019-04-30T03:49:50.386Z,98924.09
2019-04-30T03:52:20.031Z,98929.04
2019-04-30T03:54:49.827Z,98929.42
2019-04-30T03:57:20.462Z,98932.18
2019-04-30T03:59:50.296Z,98930.32
2019-04-30T04:02:21.379Z,98932.36
2019-04-30T04:04:52.907Z,98936.67
2019-04-30T04:10:11.587Z,98934.84
2019-04-30T04:12:41.095Z,98930.16
2019-04-30T04:15:12.315Z,98936.66
2019-04-30T04:17:41.788Z,98935.64
2019-04-30T04:20:11.783Z,98942.36
2019-04-30T04:22:41.344Z,98938.81
2019-04-30T04:25:13.210Z,98938.47
2019-04-30T04:27:42.591Z,98943.14
2019-04-30T04:30:12.779Z,98942.61
2019-04-30T04:32:42.283Z,98941.25
2019-04-30T04:35:13.000Z,98941.75
2019-04-30T04:37:42.716Z,98943.83
2019-04-30T04:40:21.016Z,98943.13
2019-04-30T04:42:49.597Z,98947.44
2019-04-30T04:45:19.878Z,98945.10
2019-04-30T04:47:50.392Z,98944.27
2019-04-30T04:50:20.440Z,98941.75
2019-04-30T04:52:49.953Z,98943.80
2019-04-30T04:55:22.139Z,98943.17
2019-04-30T04:57:50.813Z,98944.11
2019-04-30T05:00:20.728Z,98944.96
2019-04-30T05:02:52.052Z,98941.18
2019-04-30T05:05:21.536Z,98948.34
2019-04-30T05:07:51.015Z,98953.03
2019-04-30T05:10:20.563Z,98958.11
2019-04-30T05:12:51.086Z,98951.55
2019-04-30T05:15:20.741Z,98957.39
2019-04-30T05:17:50.225Z,98953.83
2019-04-30T05:20:19.727Z,98952.16
2019-04-30T05:22:58.563Z,98956.37
2019-04-30T05:25:29.619Z,98955.60
2019-04-30T05:27:59.199Z,98954.98
2019-04-30T05:30:29.540Z,98959.86
2019-04-30T05:32:59.249Z,98949.36
2019-04-30T05:35:30.952Z,98954.86
2019-04-30T05:38:01.436Z,98956.02
2019-04-30T05:40:30.902Z,98956.02
2019-04-30T05:43:00.493Z,98955.53
2019-04-30T05:45:30.021Z,98960.38
2019-04-30T05:48:05.870Z,98958.89
2019-04-30T05:50:39.178Z,98956.25
2019-04-30T05:53:09.074Z,98952.56
2019-04-30T05:55:39.544Z,98958.81
2019-04-30T05:58:09.603Z,98957.19
2019-04-30T06:00:40.034Z,98959.97
2019-04-30T06:03:09.957Z,98959.20
2019-04-30T06:05:51.556Z,98972.13
2019-04-30T06:08:22.799Z,98966.39
2019-04-30T06:10:56.893Z,98965.31
2019-04-30T06:13:28.735Z,98963.15
2019-04-30T06:15:59.963Z,98963.72
2019-04-30T06:18:30.991Z,98959.27
2019-04-30T06:21:00.863Z,98961.54
2019-04-30T06:23:30.362Z,98963.38
2019-04-30T06:26:09.365Z,98959.59
2019-04-30T06:28:51.485Z,98963.47
2019-04-30T06:31:43.158Z,98964.03
2019-04-30T06:34:12.012Z,98965.42
2019-04-30T06:36:50.945Z,98965.09
2019-04-30T06:39:12.731Z,98966.98
2019-04-30T06:41:42.567Z,98964.65
2019-04-30T06:44:12.668Z,98957.94
2019-04-30T06:46:43.611Z,98961.00
2019-04-30T06:49:14.520Z,98965.39
2019-04-30T06:51:45.574Z,98967.41
2019-04-30T06:54:15.189Z,98970.47
2019-04-30T06:56:44.660Z,98966.92
2019-04-30T06:59:14.164Z,98964.11
2019-04-30T07:01:44.031Z,98967.80
2019-04-30T07:04:13.602Z,98964.63
2019-04-30T07:06:45.125Z,98970.92
2019-04-30T07:09:16.038Z,98974.76
2019-04-30T07:11:49.246Z,98970.38
2019-04-30T07:14:19.563Z,98968.05
2019-04-30T07:16:54.868Z,98970.77
2019-04-30T07:19:33.013Z,98968.46
2019-04-30T07:21:55.500Z,98970.47
2019-04-30T07:24:26.624Z,98977.18
2019-04-30T07:26:59.700Z,98981.96
2019-04-30T07:29:29.492Z,98984.61
2019-04-30T07:31:59.222Z,98978.78
2019-04-30T07:34:30.285Z,98979.70
2019-04-30T07:37:11.814Z,98977.55
2019-04-30T07:39:33.361Z,98975.66
2019-04-30T07:42:02.586Z,98980.06
2019-04-30T07:44:36.433Z,98979.41
2019-04-30T07:47:03.897Z,98984.72
2019-04-30T07:52:05.426Z,98988.30
2019-04-30T07:54:35.389Z,98986.14
2019-04-30T07:57:04.904Z,98986.08
2019-04-30T07:59:34.375Z,98989.77
2019-04-30T08:04:36.883Z,98985.61
2019-04-30T08:07:06.367Z,98988.92
2019-04-30T08:09:35.521Z,98983.88
2019-04-30T08:09:38.272Z,98988.30
2019-04-30T08:09:39.783Z,98988.37
2019-04-30T08:12:09.370Z,98995.11
2019-04-30T08:14:44.554Z,98996.28
2019-04-30T08:17:14.034Z,98998.86
2019-04-30T08:19:43.521Z,99004.19
2019-04-30T08:22:13.131Z,98995.50
2019-04-30T08:24:42.623Z,98998.27
2019-04-30T08:27:12.107Z,99007.02
2019-04-30T08:29:41.594Z,99006.66
2019-04-30T08:32:11.075Z,99004.61
2019-04-30T08:34:42.654Z,98998.20
2019-04-30T08:37:17.144Z,98989.63
2019-04-30T08:39:43.604Z,98980.45
2019-04-30T08:42:13.245Z,98970.20
2019-04-30T08:44:42.760Z,98973.89
2019-04-30T08:47:12.483Z,98975.94
2019-04-30T08:49:41.988Z,98967.92
2019-04-30T08:52:11.787Z,98978.67
2019-04-30T08:54:41.611Z,98981.08
2019-04-30T08:57:11.151Z,98968.67
2019-04-30T08:59:40.678Z,98965.24
2019-04-30T09:02:16.078Z,98972.64
2019-04-30T09:04:41.526Z,98962.45
2019-04-30T09:07:11.190Z,98963.53
2019-04-30T09:09:40.678Z,98954.59
2019-04-30T09:12:10.222Z,98930.69
2019-04-30T09:14:42.495Z,98928.89
2019-04-30T09:17:19.731Z,98922.36
2019-04-30T09:19:49.176Z,98915.78
2019-04-30T09:22:19.451Z,98908.59
2019-04-30T09:24:49.866Z,98920.00
2019-04-30T09:27:22.198Z,98924.56
2019-04-30T09:29:51.711Z,98917.61
2019-04-30T09:32:21.207Z,98913.39
2019-04-30T09:35:10.372Z,98924.54
2019-04-30T09:37:41.769Z,98928.97
2019-04-30T09:40:18.249Z,98941.85
2019-04-30T09:42:42.924Z,98935.58
2019-04-30T09:45:12.802Z,98931.11
2019-04-30T09:48:01.607Z,98923.09
2019-04-30T09:50:31.341Z,98916.77
2019-04-30T09:53:02.689Z,98921.45
2019-04-30T09:55:32.430Z,98899.25
2019-04-30T09:58:21.368Z,98914.48
2019-04-30T10:01:10.239Z,98896.41
2019-04-30T10:03:40.399Z,98884.80
2019-04-30T10:06:38.928Z,98888.95
2019-04-30T10:09:01.183Z,98873.16
2019-04-30T10:11:32.273Z,98875.56
2019-04-30T10:14:21.269Z,98882.97
2019-04-30T10:16:52.351Z,98887.13
2019-04-30T10:19:21.852Z,98868.09
2019-04-30T10:21:51.745Z,98879.64
2019-04-30T10:24:22.799Z,98869.47
2019-04-30T10:27:13.377Z,98848.89
2019-04-30T10:29:43.563Z,98838.66
2019-04-30T10:32:13.288Z,98860.27
2019-04-30T10:35:02.177Z,98848.13
2019-04-30T10:37:31.869Z,98877.09
2019-04-30T10:40:01.414Z,98846.80
2019-04-30T10:42:30.985Z,98841.38
2019-04-30T10:45:00.473Z,98847.78
2019-04-30T10:47:32.497Z,98844.14
2019-04-30T10:50:21.257Z,98827.33
2019-04-30T10:53:12.413Z,98833.81
2019-04-30T10:56:00.664Z,98836.04
2019-04-30T10:58:30.168Z,98848.45
2019-04-30T11:01:01.987Z,98835.41
2019-04-30T11:03:31.141Z,98830.39
2019-04-30T11:06:00.765Z,98821.30
2019-04-30T11:08:30.259Z,98823.81
2019-04-30T11:10:59.874Z,98827.08
2019-04-30T11:13:48.688Z,98836.50
2019-04-30T11:16:18.892Z,98841.20
2019-04-30T11:18:48.718Z,98820.07
2019-04-30T11:21:19.766Z,98832.08
2019-04-30T11:24:09.342Z,98834.31
2019-04-30T11:26:40.265Z,98817.02
2019-04-30T11:29:10.768Z,98825.55
2019-04-30T11:31:42.199Z,98814.53
2019-04-30T11:34:12.004Z,98812.50
2019-04-30T11:36:41.560Z,98807.01
2019-04-30T11:39:23.695Z,98812.50
2019-04-30T11:41:53.219Z,98796.16
2019-04-30T11:44:30.826Z,98790.92
2019-04-30T11:46:59.671Z,98788.37
2019-04-30T11:49:29.311Z,98797.30
2019-04-30T11:51:59.039Z,98786.16
2019-04-30T11:54:29.887Z,98779.86
2019-04-30T11:57:18.894Z,98778.13
2019-04-30T11:59:48.645Z,98775.02
2019-04-30T12:02:21.195Z,98779.02
2019-04-30T12:04:51.022Z,98779.80
2019-04-30T12:07:22.297Z,98777.00
2019-04-30T12:09:53.724Z,98783.44
2019-04-30T12:12:24.054Z,98791.86
2019-04-30T12:14:53.582Z,98776.50
2019-04-30T12:17:23.115Z,98774.14
2019-04-30T12:19:52.600Z,98780.05
2019-04-30T12:22:22.598Z,98772.54
2019-04-30T12:25:02.209Z,98768.05
2019-04-30T12:27:23.274Z,98773.36
2019-04-30T12:29:52.827Z,98771.01
2019-04-30T12:32:22.307Z,98763.55
2019-04-30T12:34:51.795Z,98756.55
2019-04-30T12:37:21.282Z,98764.25
2019-04-30T12:39:50.951Z,98758.42
2019-04-30T12:42:20.456Z,98750.75
2019-04-30T12:44:50.002Z,98749.05
2019-04-30T12:47:21.913Z,98744.79
2019-04-30T12:49:52.324Z,98743.78
2019-04-30T12:52:23.434Z,98740.24
2019-04-30T12:54:54.512Z,98748.95
2019-04-30T12:57:25.695Z,98753.16
2019-04-30T12:59:55.369Z,98753.55
2019-04-30T13:02:25.004Z,98742.76
2019-04-30T13:04:54.603Z,98731.11
2019-04-30T13:07:24.868Z,98736.01
2019-04-30T13:09:55.272Z,98743.58
2019-04-30T13:12:44.987Z,98735.56
2019-04-30T13:15:15.572Z,98734.05
2019-04-30T13:17:45.209Z,98733.14
2019-04-30T13:20:21.030Z,98721.20
2019-04-30T13:22:46.550Z,98721.25
2019-04-30T13:25:28.195Z,98708.62
2019-04-30T13:27:49.133Z,98711.17
2019-04-30T13:30:20.814Z,98702.31
2019-04-30T13:32:51.905Z,98698.42
2019-04-30T13:35:21.434Z,98697.75
2019-04-30T13:37:52.488Z,98693.94
2019-04-30T13:40:23.870Z,98691.88
2019-04-30T13:43:06.942Z,98688.84
2019-04-30T13:45:36.345Z,98689.95
2019-04-30T13:48:25.173Z,98685.92
2019-04-30T13:50:54.641Z,98686.12
2019-04-30T13:53:24.139Z,98678.16
2019-04-30T13:55:53.626Z,98671.16
2019-04-30T13:58:23.102Z,98681.09
2019-04-30T14:00:52.611Z,98677.30
2019-04-30T14:03:23.807Z,98672.81
2019-04-30T14:05:53.460Z,98691.00
2019-04-30T14:08:24.581Z,98686.40
2019-04-30T14:10:54.541Z,98684.22
2019-04-30T14:13:25.765Z,98673.80
2019-04-30T14:15:55.346Z,98672.44
2019-04-30T14:18:30.864Z,98680.63
2019-04-30T14:20:56.403Z,98682.59
2019-04-30T14:23:26.105Z,98666.00
2019-04-30T14:25:56.889Z,98656.44
2019-04-30T14:28:32.030Z,98653.47
2019-04-30T14:31:03.184Z,98652.02
2019-04-30T14:33:51.965Z,98652.11
2019-04-30T14:36:21.823Z,98651.15
2019-04-30T14:38:51.282Z,98644.39
2019-04-30T14:41:21.582Z,98656.02
2019-04-30T14:43:59.347Z,98585.98
2019-04-30T14:46:31.218Z,98657.02
2019-04-30T14:49:04.825Z,98649.95
2019-04-30T14:51:54.427Z,98666.43
2019-04-30T14:54:25.532Z,98658.59
2019-04-30T14:56:56.676Z,98658.59
2019-04-30T14:59:33.969Z,98661.49
2019-04-30T15:02:05.372Z,98658.15
2019-04-30T15:04:34.855Z,98667.63
2019-04-30T15:07:04.523Z,98664.14
2019-04-30T15:09:39.879Z,98668.17
2019-04-30T15:12:09.744Z,98663.31
2019-04-30T15:14:41.037Z,98663.08
2019-04-30T15:17:11.084Z,98670.31
2019-04-30T15:19:40.574Z,98667.59
2019-04-30T15:22:10.094Z,98669.08
2019-04-30T15:24:40.623Z,98671.56
2019-04-30T15:27:10.114Z,98669.83
2019-04-30T15:29:58.912Z,98665.17
2019-04-30T15:32:28.655Z,98663.98
2019-04-30T15:34:58.936Z,98663.45
2019-04-30T15:37:28.748Z,98661.63
2019-04-30T15:39:59.144Z,98670.52
2019-04-30T15:42:28.808Z,98666.39
2019-04-30T15:44:59.462Z,98664.39
2019-04-30T15:47:29.178Z,98665.15
2019-04-30T15:49:59.656Z,98662.50
2019-04-30T15:52:29.981Z,98668.05
2019-04-30T15:55:18.995Z,98659.90
2019-04-30T15:57:50.186Z,98663.80
2019-04-30T16:00:20.924Z,98655.45
2019-04-30T16:02:56.524Z,98658.30
2019-04-30T16:05:25.450Z,98654.95
2019-04-30T16:07:56.569Z,98655.25
2019-04-30T16:10:28.597Z,98651.11
2019-04-30T16:12:59.839Z,98653.23
2019-04-30T16:15:29.743Z,98650.34
2019-04-30T16:18:19.557Z,98651.06
2019-04-30T16:20:49.836Z,98651.73
2019-04-30T16:23:19.615Z,98649.16
2019-04-30T16:26:08.434Z,98645.11
2019-04-30T16:28:39.057Z,98639.06
2019-04-30T16:31:09.094Z,98648.40
2019-04-30T16:33:39.347Z,98650.11
2019-04-30T16:36:09.218Z,98650.23
2019-04-30T16:38:38.745Z,98646.59
2019-04-30T16:41:08.890Z,98643.22
2019-04-30T16:43:38.889Z,98640.48
2019-04-30T16:46:08.400Z,98649.23
2019-04-30T16:48:38.867Z,98645.74
2019-04-30T16:51:09.121Z,98646.11
2019-04-30T16:53:40.274Z,98648.69
2019-04-30T16:56:09.981Z,98646.91
2019-04-30T16:58:41.057Z,98646.93
2019-04-30T17:01:12.239Z,98641.61
2019-04-30T17:03:43.390Z,98640.83
2019-04-30T17:06:14.492Z,98641.65
2019-04-30T17:08:45.597Z,98638.16
2019-04-30T17:11:16.724Z,98640.59
2019-04-30T17:13:47.819Z,98638.64
2019-04-30T17:16:24.331Z,98640.26
2019-04-30T17:18:53.789Z,98638.72
2019-04-30T17:21:23.363Z,98633.69
2019-04-30T17:23:53.155Z,98634.75
2019-04-30T17:26:22.646Z,98633.30
2019-04-30T17:28:52.131Z,98630.23
2019-04-30T17:31:22.015Z,98627.91
2019-04-30T17:33:52.019Z,98628.08
2019-04-30T17:36:21.489Z,98628.77
2019-04-30T17:38:51.155Z,98630.69
2019-04-30T17:41:20.633Z,98628.58
2019-04-30T17:43:51.077Z,98633.60
2019-04-30T17:46:20.688Z,98630.99
2019-04-30T17:48:50.163Z,98633.68
2019-04-30T17:51:25.373Z,98635.26
2019-04-30T17:53:57.107Z,98631.28
2019-04-30T17:56:47.107Z,98643.66
2019-04-30T17:59:16.735Z,98641.75
2019-04-30T18:01:49.639Z,98639.43
2019-04-30T18:04:22.019Z,98638.84
2019-04-30T18:06:52.597Z,98637.64
2019-04-30T18:09:23.896Z,98637.72
2019-04-30T18:12:12.709Z,98639.69
2019-04-30T18:14:42.174Z,98648.86
2019-04-30T18:17:11.807Z,98652.05
2019-04-30T18:19:44.771Z,98656.67
2019-04-30T18:22:15.834Z,98655.57
2019-04-30T18:24:46.929Z,98660.77
2019-04-30T18:27:20.997Z,98662.41
2019-04-30T18:29:49.602Z,98665.55
2019-04-30T18:32:20.784Z,98667.53
2019-04-30T18:34:50.462Z,98670.62
2019-04-30T18:37:19.958Z,98675.05
2019-04-30T18:39:49.442Z,98676.80
2019-04-30T18:42:19.464Z,98680.89
2019-04-30T18:44:49.973Z,98680.97
2019-04-30T18:47:19.444Z,98685.84
2019-04-30T18:49:49.601Z,98681.55
2019-04-30T18:52:19.097Z,98687.25
2019-04-30T18:54:49.516Z,98685.84
2019-04-30T18:57:19.428Z,98690.20
2019-04-30T18:59:48.888Z,98688.54
2019-04-30T19:02:18.994Z,98696.52
2019-04-30T19:04:49.558Z,98692.98
2019-04-30T19:07:20.911Z,98693.97
2019-04-30T19:09:52.092Z,98698.48
2019-04-30T19:12:23.253Z,98697.83
2019-04-30T19:14:54.365Z,98698.05
2019-04-30T19:17:26.074Z,98702.42
2019-04-30T19:19:57.420Z,98706.59
2019-04-30T19:22:28.598Z,98705.05
2019-04-30T19:24:59.492Z,98710.80
2019-04-30T19:27:31.017Z,98714.75
2019-04-30T19:30:04.877Z,98722.39
2019-04-30T19:32:34.376Z,98724.81
2019-04-30T19:35:05.025Z,98722.73
2019-04-30T19:37:34.493Z,98727.20
2019-04-30T19:40:08.978Z,98725.25
2019-04-30T19:42:39.563Z,98731.59
2019-04-30T19:45:12.365Z,98739.67
2019-04-30T19:47:40.863Z,98737.31
2019-04-30T19:50:13.882Z,98741.40
2019-04-30T19:52:42.211Z,98745.24
2019-04-30T19:55:12.106Z,98752.66
2019-04-30T19:57:41.588Z,98749.42
2019-04-30T20:00:11.563Z,98752.05
2019-04-30T20:02:41.136Z,98755.70
2019-04-30T20:05:11.064Z,98752.36
2019-04-30T20:07:40.732Z,98753.58
2019-04-30T20:10:10.919Z,98752.52
2019-04-30T20:12:59.738Z,98754.92
2019-04-30T20:15:29.792Z,98753.77
2019-04-30T20:18:00.999Z,98755.26
2019-04-30T20:20:30.832Z,98755.00
2019-04-30T20:23:00.460Z,98755.73
2019-04-30T20:25:29.880Z,98760.95
2019-04-30T20:27:59.376Z,98759.23
2019-04-30T20:30:29.288Z,98759.19
2019-04-30T20:32:59.441Z,98758.68
2019-04-30T20:35:29.111Z,98756.29
2019-04-30T20:38:19.556Z,98760.62
2019-04-30T20:41:10.001Z,98761.30
2019-04-30T20:43:39.581Z,98758.36
2019-04-30T20:46:09.783Z,98758.69
2019-04-30T20:48:41.095Z,98756.64
2019-04-30T20:51:10.687Z,98757.92
2019-04-30T20:53:41.054Z,98753.55
2019-04-30T20:56:10.755Z,98753.77
2019-04-30T20:58:54.665Z,98753.85
2019-04-30T21:01:11.502Z,98752.59
2019-04-30T21:03:41.034Z,98749.23
2019-04-30T21:06:10.510Z,98752.38
2019-04-30T21:08:40.007Z,98751.99
2019-04-30T21:11:28.838Z,98754.83
2019-04-30T21:13:59.069Z,98756.28
2019-04-30T21:16:28.777Z,98753.26
2019-04-30T21:18:58.298Z,98754.47
2019-04-30T21:21:28.752Z,98752.13
2019-04-30T21:23:58.665Z,98754.08
2019-04-30T21:26:28.162Z,98752.06
2019-04-30T21:29:10.403Z,98751.79
2019-04-30T21:31:49.853Z,98754.48
2019-04-30T21:34:20.946Z,98752.70
2019-04-30T21:36:50.520Z,98749.75
2019-04-30T21:39:20.230Z,98756.91
2019-04-30T21:41:49.779Z,98756.92
2019-04-30T21:44:19.270Z,98754.00
2019-04-30T21:46:48.929Z,98754.51
2019-04-30T21:49:18.431Z,98754.98
2019-04-30T21:51:47.889Z,98755.16
2019-04-30T21:54:17.377Z,98749.98
2019-04-30T21:56:46.884Z,98751.91
2019-04-30T21:59:24.288Z,98754.30
2019-04-30T22:01:48.029Z,98748.73
2019-04-30T22:04:17.485Z,98745.75
2019-04-30T22:06:46.985Z,98745.45
2019-04-30T22:09:16.866Z,98749.73
2019-04-30T22:11:46.334Z,98748.55
2019-04-30T22:14:15.839Z,98748.02
2019-04-30T22:16:45.426Z,98743.37
2019-04-30T22:19:14.918Z,98744.33
2019-04-30T22:21:44.574Z,98747.60
2019-04-30T22:24:15.622Z,98752.83
2019-04-30T22:26:45.102Z,98753.80
2019-04-30T22:29:14.560Z,98749.73
2019-04-30T22:31:44.090Z,98750.70
2019-04-30T22:34:13.549Z,98754.71
2019-04-30T22:36:44.621Z,98757.91
2019-04-30T22:39:17.245Z,98749.95
2019-04-30T22:41:46.705Z,98753.19
2019-04-30T22:44:16.198Z,98754.45
2019-04-30T22:46:45.713Z,98755.28
2019-04-30T22:49:15.360Z,98752.28
2019-04-30T22:51:44.951Z,98759.03
2019-04-30T22:54:14.497Z,98756.72
2019-04-30T22:56:43.976Z,98757.31
2019-04-30T22:59:14.935Z,98752.05
2019-04-30T23:01:46.146Z,98753.54
2019-04-30T23:04:17.245Z,98753.98
2019-04-30T23:06:46.919Z,98751.80
2019-04-30T23:09:18.288Z,98750.20
2019-04-30T23:11:47.765Z,98747.41
2019-04-30T23:14:17.291Z,98746.62
2019-04-30T23:16:48.305Z,98742.66
2019-04-30T23:19:17.800Z,98744.83
2019-04-30T23:21:47.289Z,98747.34
2019-04-30T23:24:16.768Z,98740.20
2019-04-30T23:26:46.221Z,98741.03
2019-04-30T23:29:15.683Z,98738.36
2019-04-30T23:31:45.210Z,98743.20
2019-04-30T23:34:18.155Z,98737.89
2019-04-30T23:36:46.055Z,98738.42
2019-04-30T23:39:15.539Z,98736.59
2019-04-30T23:41:45.167Z,98734.05
2019-04-30T23:44:14.632Z,98725.33
2019-04-30T23:47:03.467Z,98730.55
2019-04-30T23:49:33.064Z,98735.27
2019-04-30T23:52:02.533Z,98736.89
2019-04-30T23:54:32.074Z,98735.34
2019-04-30T23:57:01.553Z,98731.81
2019-04-30T23:59:31.030Z,98733.19
